createdAt,value
2023-02-24T00:00:52.693Z,6.5
2023-02-24T00:01:56.617Z,6.5
2023-02-24T00:02:59.246Z,6.4
2023-02-24T00:04:02.694Z,6.5
2023-02-24T00:05:05.126Z,6.5
2023-02-24T00:06:07.425Z,6.5
2023-02-24T00:07:10.495Z,6.5
2023-02-24T00:08:13.220Z,6.5
2023-02-24T00:09:16.467Z,6.5
2023-02-24T00:10:20.077Z,6.5
2023-02-24T00:11:23.682Z,6.5
2023-02-24T00:12:26.967Z,6.5
2023-02-24T00:13:30.522Z,6.5
2023-02-24T00:14:33.340Z,6.5
2023-02-24T00:15:36.904Z,6.5
2023-02-24T00:16:40.877Z,6.5
2023-02-24T00:17:44.825Z,6.4
2023-02-24T00:18:48.228Z,6.4
2023-02-24T00:19:51.512Z,6.4
2023-02-24T00:20:54.567Z,6.4
2023-02-24T00:21:58.004Z,6.4
2023-02-24T00:23:01.456Z,6.4
2023-02-24T00:24:04.566Z,6.4
2023-02-24T00:25:06.746Z,6.4
2023-02-24T00:26:10.540Z,6.4
2023-02-24T00:27:13.347Z,6.4
2023-02-24T00:28:16.432Z,6.4
2023-02-24T00:29:20.281Z,6.4
2023-02-24T00:30:23.735Z,6.4
2023-02-24T00:31:27.322Z,6.4
2023-02-24T00:32:32.393Z,6.5
2023-02-24T00:33:36.005Z,6.5
2023-02-24T00:34:39.029Z,6.5
2023-02-24T00:35:40.972Z,6.5
2023-02-24T00:36:43.696Z,6.5
2023-02-24T00:37:47.412Z,6.5
2023-02-24T00:38:50.434Z,6.5
2023-02-24T00:39:53.446Z,6.5
2023-02-24T00:40:56.814Z,6.5
2023-02-24T00:42:00.258Z,6.6
2023-02-24T00:43:02.766Z,6.5
2023-02-24T00:44:05.766Z,6.5
2023-02-24T00:45:09.579Z,6.5
2023-02-24T00:46:12.828Z,6.6
2023-02-24T00:47:17.267Z,6.5
2023-02-24T00:48:20.484Z,6.5
2023-02-24T00:49:24.165Z,6.5
2023-02-24T00:50:27.236Z,6.5
2023-02-24T00:51:30.617Z,6.5
2023-02-24T00:52:33.720Z,6.5
2023-02-24T00:53:36.911Z,6.6
2023-02-24T00:54:39.931Z,6.6
2023-02-24T00:55:42.368Z,6.6
2023-02-24T00:56:44.800Z,6.6
2023-02-24T00:57:48.066Z,6.5
2023-02-24T00:58:51.131Z,6.5
2023-02-24T00:59:54.874Z,6.6
2023-02-24T01:00:58.464Z,6.6
2023-02-24T01:02:02.291Z,6.6
2023-02-24T01:03:04.686Z,6.5
2023-02-24T01:04:08.225Z,6.5
2023-02-24T01:05:11.517Z,6.5
2023-02-24T01:06:14.979Z,6.6
2023-02-24T01:07:18.010Z,6.5
2023-02-24T01:08:21.279Z,6.6
2023-02-24T01:09:24.179Z,6.6
2023-02-24T01:10:27.221Z,6.6
2023-02-24T01:11:30.660Z,6.6
2023-02-24T01:12:33.678Z,6.6
2023-02-24T01:13:37.101Z,6.6
2023-02-24T01:14:40.829Z,6.6
2023-02-24T01:15:43.573Z,6.6
2023-02-24T01:16:47.961Z,6.6
2023-02-24T01:17:51.438Z,6.6
2023-02-24T01:18:55.175Z,6.6
2023-02-24T01:19:58.082Z,6.7
2023-02-24T01:21:01.794Z,6.7
2023-02-24T01:22:05.414Z,6.7
2023-02-24T01:23:08.576Z,6.7
2023-02-24T01:24:11.073Z,6.7
2023-02-24T01:25:13.717Z,6.7
2023-02-24T01:26:16.797Z,6.7
2023-02-24T01:27:20.236Z,6.7
2023-02-24T01:28:22.440Z,6.7
2023-02-24T01:29:25.822Z,6.7
2023-02-24T01:30:29.154Z,6.7
2023-02-24T01:31:32.999Z,6.7
2023-02-24T01:32:38.210Z,6.7
2023-02-24T01:33:42.358Z,6.7
2023-02-24T01:34:45.402Z,6.7
2023-02-24T01:35:48.118Z,6.7
2023-02-24T01:36:51.760Z,6.8
2023-02-24T01:37:54.660Z,6.8
2023-02-24T01:38:57.999Z,6.8
2023-02-24T01:40:00.790Z,6.8
2023-02-24T01:41:03.223Z,6.8
2023-02-24T01:42:06.229Z,6.8
2023-02-24T01:43:09.350Z,6.8
2023-02-24T01:44:12.090Z,6.8
2023-02-24T01:45:14.918Z,6.8
2023-02-24T01:46:18.443Z,6.9
2023-02-24T01:47:22.475Z,6.8
2023-02-24T01:48:25.785Z,6.8
2023-02-24T01:49:30.409Z,6.8
2023-02-24T01:50:33.594Z,6.8
2023-02-24T01:51:36.986Z,6.8
2023-02-24T01:52:39.734Z,6.8
2023-02-24T01:53:42.798Z,6.8
2023-02-24T01:54:45.323Z,6.8
2023-02-24T01:55:49.011Z,6.8
2023-02-24T01:56:51.783Z,6.8
2023-02-24T01:57:54.861Z,6.8
2023-02-24T01:58:58.199Z,6.8
2023-02-24T02:00:00.985Z,6.8
2023-02-24T02:01:03.617Z,6.8
2023-02-24T02:02:07.399Z,6.8
2023-02-24T02:03:12.154Z,6.8
2023-02-24T02:04:16.314Z,6.8
2023-02-24T02:05:20.081Z,6.8
2023-02-24T02:06:23.036Z,6.8
2023-02-24T02:07:25.852Z,6.8
2023-02-24T02:08:28.442Z,6.8
2023-02-24T02:09:31.165Z,6.8
2023-02-24T02:10:34.835Z,6.8
2023-02-24T02:11:37.623Z,6.8
2023-02-24T02:12:40.338Z,6.8
2023-02-24T02:13:43.316Z,6.8
2023-02-24T02:14:47.377Z,6.7
2023-02-24T02:15:50.759Z,6.7
2023-02-24T02:16:54.553Z,6.7
2023-02-24T02:17:57.598Z,6.7
2023-02-24T02:19:01.369Z,6.7
2023-02-24T02:20:05.244Z,6.7
2023-02-24T02:21:08.049Z,6.7
2023-02-24T02:22:10.578Z,6.7
2023-02-24T02:23:13.566Z,6.7
2023-02-24T02:24:16.974Z,6.7
2023-02-24T02:25:20.124Z,6.7
2023-02-24T02:26:23.165Z,6.7
2023-02-24T02:27:25.944Z,6.8
2023-02-24T02:28:28.663Z,6.8
2023-02-24T02:29:31.731Z,6.8
2023-02-24T02:30:35.273Z,6.8
2023-02-24T02:31:39.780Z,6.8
2023-02-24T02:32:43.300Z,6.8
2023-02-24T02:33:47.884Z,6.7
2023-02-24T02:34:51.923Z,6.7
2023-02-24T02:35:55.824Z,6.8
2023-02-24T02:36:59.557Z,6.8
2023-02-24T02:38:02.552Z,6.7
2023-02-24T02:39:05.339Z,6.7
2023-02-24T02:40:09.089Z,6.7
2023-02-24T02:41:12.637Z,6.8
2023-02-24T02:42:16.291Z,6.8
2023-02-24T02:43:19.971Z,6.8
2023-02-24T02:44:22.880Z,6.8
2023-02-24T02:45:25.787Z,6.8
2023-02-24T02:46:29.321Z,6.8
2023-02-24T02:47:33.066Z,6.8
2023-02-24T02:48:36.517Z,6.8
2023-02-24T02:49:39.437Z,6.8
2023-02-24T02:50:42.194Z,6.8
2023-02-24T02:51:45.906Z,6.8
2023-02-24T02:52:49.617Z,6.8
2023-02-24T02:53:51.867Z,6.8
2023-02-24T02:54:54.134Z,6.8
2023-02-24T02:55:57.883Z,6.8
2023-02-24T02:57:01.372Z,6.8
2023-02-24T02:58:05.200Z,6.8
2023-02-24T02:59:08.341Z,6.8
2023-02-24T03:00:11.084Z,6.8
2023-02-24T03:01:14.397Z,6.9
2023-02-24T03:02:18.135Z,6.8
2023-02-24T03:03:21.785Z,6.8
2023-02-24T03:04:25.260Z,6.8
2023-02-24T03:05:28.235Z,6.9
2023-02-24T03:06:31.402Z,6.8
2023-02-24T03:07:35.355Z,6.8
2023-02-24T03:08:38.710Z,6.8
2023-02-24T03:09:42.414Z,6.8
2023-02-24T03:10:45.565Z,6.8
2023-02-24T03:11:48.725Z,6.8
2023-02-24T03:12:52.251Z,6.8
2023-02-24T03:13:55.596Z,6.8
2023-02-24T03:14:58.095Z,6.8
2023-02-24T03:16:01.191Z,6.8
2023-02-24T03:17:04.279Z,6.8
2023-02-24T03:18:06.763Z,6.8
2023-02-24T03:19:09.868Z,6.8
2023-02-24T03:20:12.765Z,6.8
2023-02-24T03:21:15.702Z,6.8
2023-02-24T03:22:19.385Z,6.8
2023-02-24T03:23:23.302Z,6.8
2023-02-24T03:24:26.744Z,6.8
2023-02-24T03:25:29.584Z,6.8
2023-02-24T03:26:32.801Z,6.8
2023-02-24T03:27:35.851Z,6.8
2023-02-24T03:28:39.036Z,6.8
2023-02-24T03:29:41.564Z,6.8
2023-02-24T03:30:44.315Z,6.8
2023-02-24T03:31:47.956Z,6.8
2023-02-24T03:32:52.250Z,6.8
2023-02-24T03:33:55.631Z,6.8
2023-02-24T03:34:58.716Z,6.8
2023-02-24T03:36:02.113Z,6.8
2023-02-24T03:37:05.760Z,6.8
2023-02-24T03:38:08.592Z,6.8
2023-02-24T03:39:13.095Z,6.8
2023-02-24T03:40:16.729Z,6.8
2023-02-24T03:41:20.945Z,6.8
2023-02-24T03:42:24.868Z,6.7
2023-02-24T03:43:27.645Z,6.7
2023-02-24T03:44:30.715Z,6.7
2023-02-24T03:45:34.052Z,6.7
2023-02-24T03:46:37.563Z,6.7
2023-02-24T03:47:40.610Z,6.7
2023-02-24T03:48:44.359Z,6.7
2023-02-24T03:49:46.919Z,6.7
2023-02-24T03:50:50.403Z,6.7
2023-02-24T03:51:53.812Z,6.7
2023-02-24T03:52:57.173Z,6.7
2023-02-24T03:54:00.170Z,6.7
2023-02-24T03:55:04.062Z,6.6
2023-02-24T03:56:07.392Z,6.7
2023-02-24T03:57:10.448Z,6.7
2023-02-24T03:58:13.805Z,6.6
2023-02-24T03:59:17.226Z,6.6
2023-02-24T04:00:19.925Z,6.6
2023-02-24T04:01:23.875Z,6.6
2023-02-24T04:02:27.429Z,6.6
2023-02-24T04:03:30.486Z,6.6
2023-02-24T04:04:34.314Z,6.6
2023-02-24T04:05:37.669Z,6.6
2023-02-24T04:06:40.206Z,6.6
2023-02-24T04:07:43.827Z,6.6
2023-02-24T04:08:47.251Z,6.6
2023-02-24T04:09:49.790Z,6.6
2023-02-24T04:10:53.863Z,6.6
2023-02-24T04:11:56.925Z,6.6
2023-02-24T04:13:00.578Z,6.6
2023-02-24T04:14:03.707Z,6.5
2023-02-24T04:15:06.364Z,6.5
2023-02-24T04:16:09.075Z,6.5
2023-02-24T04:17:12.661Z,6.5
2023-02-24T04:18:15.803Z,6.5
2023-02-24T04:19:18.645Z,6.5
2023-02-24T04:20:22.283Z,6.5
2023-02-24T04:21:25.818Z,6.5
2023-02-24T04:22:28.533Z,6.5
2023-02-24T04:23:31.632Z,6.5
2023-02-24T04:24:34.864Z,6.5
2023-02-24T04:25:37.909Z,6.5
2023-02-24T04:26:41.789Z,6.5
2023-02-24T04:27:45.118Z,6.5
2023-02-24T04:28:47.536Z,6.5
2023-02-24T04:29:51.334Z,6.5
2023-02-24T04:30:55.531Z,6.5
2023-02-24T04:31:59.405Z,6.5
2023-02-24T04:33:02.725Z,6.5
2023-02-24T04:34:06.121Z,6.5
2023-02-24T04:35:09.019Z,6.5
2023-02-24T04:36:12.158Z,6.5
2023-02-24T04:37:14.857Z,6.5
2023-02-24T04:38:17.967Z,6.5
2023-02-24T04:39:20.888Z,6.5
2023-02-24T04:40:23.457Z,6.5
2023-02-24T04:41:26.203Z,6.5
2023-02-24T04:42:29.738Z,6.5
2023-02-24T04:43:33.479Z,6.5
2023-02-24T04:44:36.361Z,6.5
2023-02-24T04:45:39.775Z,6.5
2023-02-24T04:46:42.833Z,6.5
2023-02-24T04:47:45.344Z,6.5
2023-02-24T04:48:48.165Z,6.5
2023-02-24T04:49:51.041Z,6.5
2023-02-24T04:50:53.755Z,6.4
2023-02-24T04:51:56.463Z,6.4
2023-02-24T04:52:59.269Z,6.4
2023-02-24T04:54:02.272Z,6.4
2023-02-24T04:55:06.299Z,6.3
2023-02-24T04:56:10.355Z,6.3
2023-02-24T04:57:13.255Z,6.3
2023-02-24T04:58:16.821Z,6.3
2023-02-24T04:59:20.270Z,6.3
2023-02-24T05:00:23.691Z,6.3
2023-02-24T05:01:27.445Z,6.3
2023-02-24T05:02:30.080Z,6.3
2023-02-24T05:03:32.985Z,6.3
2023-02-24T05:04:36.135Z,6.3
2023-02-24T05:05:39.280Z,6.3
2023-02-24T05:06:42.559Z,6.3
2023-02-24T05:07:45.356Z,6.3
2023-02-24T05:08:48.430Z,6.3
2023-02-24T05:09:51.537Z,6.3
2023-02-24T05:10:54.638Z,6.3
2023-02-24T05:11:57.425Z,6.3
2023-02-24T05:13:03.218Z,6.3
2023-02-24T05:14:07.051Z,6.3
2023-02-24T05:15:10.563Z,6.3
2023-02-24T05:16:13.238Z,6.3
2023-02-24T05:17:16.654Z,6.3
2023-02-24T05:18:19.386Z,6.3
2023-02-24T05:19:23.131Z,6.3
2023-02-24T05:20:26.744Z,6.3
2023-02-24T05:21:30.764Z,6.4
2023-02-24T05:22:33.694Z,6.3
2023-02-24T05:23:37.025Z,6.3
2023-02-24T05:24:39.542Z,6.3
2023-02-24T05:25:42.409Z,6.3
2023-02-24T05:26:45.059Z,6.3
2023-02-24T05:27:48.146Z,6.3
2023-02-24T05:28:51.806Z,6.3
2023-02-24T05:29:56.524Z,6.3
2023-02-24T05:31:00.430Z,6.3
2023-02-24T05:32:03.969Z,6.3
2023-02-24T05:33:08.200Z,6.3
2023-02-24T05:34:10.824Z,6.3
2023-02-24T05:35:13.845Z,6.3
2023-02-24T05:36:16.928Z,6.3
2023-02-24T05:37:20.109Z,6.3
2023-02-24T05:38:22.551Z,6.3
2023-02-24T05:39:25.623Z,6.3
2023-02-24T05:40:29.148Z,6.3
2023-02-24T05:41:31.981Z,6.2
2023-02-24T05:42:35.311Z,6.3
2023-02-24T05:43:38.066Z,6.2
2023-02-24T05:44:41.820Z,6.2
2023-02-24T05:45:46.011Z,6.2
2023-02-24T05:46:49.323Z,6.2
2023-02-24T05:47:53.173Z,6.2
2023-02-24T05:48:55.867Z,6.2
2023-02-24T05:49:59.625Z,6.2
2023-02-24T05:51:05.829Z,6.2
2023-02-24T05:52:09.737Z,6.2
2023-02-24T05:53:12.589Z,6.2
2023-02-24T05:54:16.007Z,6.2
2023-02-24T05:55:19.344Z,6.2
2023-02-24T05:56:22.220Z,6.2
2023-02-24T05:57:24.959Z,6.2
2023-02-24T05:58:28.093Z,6.2
2023-02-24T05:59:31.248Z,6.1
2023-02-24T06:00:34.420Z,6.1
2023-02-24T06:01:38.520Z,6.1
2023-02-24T06:02:42.225Z,6.1
2023-02-24T06:03:45.356Z,6.1
2023-02-24T06:04:48.711Z,6.1
2023-02-24T06:05:51.585Z,6.1
2023-02-24T06:06:54.571Z,6.1
2023-02-24T06:07:57.349Z,6.1
2023-02-24T06:08:59.845Z,6.1
2023-02-24T06:10:02.688Z,6.1
2023-02-24T06:11:06.412Z,6.1
2023-02-24T06:12:09.447Z,6.1
2023-02-24T06:13:12.759Z,6.1
2023-02-24T06:14:16.333Z,6
2023-02-24T06:15:19.988Z,6
2023-02-24T06:16:22.860Z,6
2023-02-24T06:17:27.271Z,6
2023-02-24T06:18:30.831Z,6
2023-02-24T06:19:33.324Z,6
2023-02-24T06:20:37.534Z,6
2023-02-24T06:21:41.106Z,6
2023-02-24T06:22:43.933Z,6
2023-02-24T06:23:46.738Z,6
2023-02-24T06:24:49.920Z,6
2023-02-24T06:25:52.962Z,6
2023-02-24T06:26:56.343Z,6
2023-02-24T06:27:59.703Z,6
2023-02-24T06:29:02.509Z,6
2023-02-24T06:30:05.245Z,6
2023-02-24T06:31:08.457Z,6
2023-02-24T06:32:11.804Z,6
2023-02-24T06:33:16.103Z,6.1
2023-02-24T06:34:19.749Z,6.1
2023-02-24T06:35:23.413Z,6.1
2023-02-24T06:36:25.663Z,6.1
2023-02-24T06:37:28.996Z,6.1
2023-02-24T06:38:32.147Z,6.1
2023-02-24T06:39:37.697Z,6.1
2023-02-24T06:40:40.607Z,6.1
2023-02-24T06:41:44.228Z,6.1
2023-02-24T06:42:47.969Z,6.1
2023-02-24T06:43:50.828Z,6.2
2023-02-24T06:44:54.490Z,6.1
2023-02-24T06:45:58.329Z,6.1
2023-02-24T06:47:01.188Z,6.1
2023-02-24T06:48:03.683Z,6.1
2023-02-24T06:49:07.263Z,6.1
2023-02-24T06:50:10.966Z,6.1
2023-02-24T06:51:15.039Z,6.1
2023-02-24T06:52:19.508Z,6.1
2023-02-24T06:53:22.993Z,6.1
2023-02-24T06:54:25.491Z,6.1
2023-02-24T06:55:28.486Z,6.1
2023-02-24T06:56:33.187Z,6.1
2023-02-24T06:57:36.943Z,6.1
2023-02-24T06:58:39.288Z,6.1
2023-02-24T06:59:42.082Z,6.1
2023-02-24T07:00:45.171Z,6.1
2023-02-24T07:01:48.363Z,6.1
2023-02-24T07:02:51.862Z,6.1
2023-02-24T07:03:55.373Z,6.1
2023-02-24T07:04:59.489Z,6.1
2023-02-24T07:06:02.626Z,6.1
2023-02-24T07:07:06.103Z,6.1
2023-02-24T07:08:08.608Z,6.1
2023-02-24T07:09:11.397Z,6.1
2023-02-24T07:10:14.179Z,6.1
2023-02-24T07:11:17.241Z,6.1
2023-02-24T07:12:21.293Z,6.1
2023-02-24T07:13:24.202Z,6.1
2023-02-24T07:14:27.583Z,6.1
2023-02-24T07:15:30.732Z,6.1
2023-02-24T07:16:33.374Z,6.2
2023-02-24T07:17:37.224Z,6.1
2023-02-24T07:18:40.987Z,6.2
2023-02-24T07:19:43.734Z,6.1
2023-02-24T07:20:47.998Z,6.1
2023-02-24T07:21:51.390Z,6.1
2023-02-24T07:22:54.530Z,6.1
2023-02-24T07:23:59.962Z,6.1
2023-02-24T07:25:02.970Z,6.1
2023-02-24T07:26:06.750Z,6.1
2023-02-24T07:27:10.478Z,6.1
2023-02-24T07:28:13.839Z,6.1
2023-02-24T07:29:17.479Z,6.1
2023-02-24T07:30:20.600Z,6.1
2023-02-24T07:31:25.415Z,6.1
2023-02-24T07:32:30.208Z,6
2023-02-24T07:33:32.828Z,6
2023-02-24T07:34:36.131Z,6.1
2023-02-24T07:35:41.991Z,6
2023-02-24T07:36:45.813Z,6
2023-02-24T07:37:48.877Z,6
2023-02-24T07:38:51.703Z,6
2023-02-24T07:39:54.758Z,6
2023-02-24T07:40:58.148Z,6
2023-02-24T07:42:01.065Z,6
2023-02-24T07:43:04.710Z,6
2023-02-24T07:44:06.874Z,5.9
2023-02-24T07:45:09.980Z,5.9
2023-02-24T07:46:13.719Z,5.9
2023-02-24T07:47:16.912Z,5.9
2023-02-24T07:48:20.067Z,5.9
2023-02-24T07:49:22.815Z,5.9
2023-02-24T07:50:26.467Z,5.9
2023-02-24T07:51:29.539Z,5.9
2023-02-24T07:52:33.700Z,5.9
2023-02-24T07:53:37.058Z,5.9
2023-02-24T07:54:40.668Z,5.9
2023-02-24T07:55:43.591Z,5.8
2023-02-24T07:56:45.753Z,5.8
2023-02-24T07:57:49.280Z,5.8
2023-02-24T07:58:52.617Z,5.8
2023-02-24T07:59:55.925Z,5.7
2023-02-24T08:00:58.636Z,5.7
2023-02-24T08:02:02.002Z,5.7
2023-02-24T08:03:05.510Z,5.7
2023-02-24T08:04:08.345Z,5.8
2023-02-24T08:05:12.320Z,5.8
2023-02-24T08:06:14.915Z,5.7
2023-02-24T08:07:18.141Z,5.7
2023-02-24T08:08:22.133Z,5.7
2023-02-24T08:09:25.513Z,5.7
2023-02-24T08:10:28.919Z,5.7
2023-02-24T08:11:32.612Z,5.7
2023-02-24T08:12:36.381Z,5.7
2023-02-24T08:13:39.431Z,5.7
2023-02-24T08:14:43.035Z,5.7
2023-02-24T08:15:46.111Z,5.7
2023-02-24T08:16:49.854Z,5.7
2023-02-24T08:17:53.619Z,5.7
2023-02-24T08:18:56.776Z,5.7
2023-02-24T08:20:00.185Z,5.7
2023-02-24T08:21:03.950Z,5.7
2023-02-24T08:22:07.452Z,5.6
2023-02-24T08:23:10.541Z,5.7
2023-02-24T08:24:14.750Z,5.6
2023-02-24T08:25:18.976Z,5.6
2023-02-24T08:26:22.403Z,5.6
2023-02-24T08:27:25.811Z,5.6
2023-02-24T08:28:29.516Z,5.5
2023-02-24T08:29:32.920Z,5.6
2023-02-24T08:30:36.241Z,5.5
2023-02-24T08:31:40.215Z,5.6
2023-02-24T08:32:44.637Z,5.5
2023-02-24T08:33:47.724Z,5.5
2023-02-24T08:34:51.030Z,5.5
2023-02-24T08:35:54.249Z,5.5
2023-02-24T08:36:57.612Z,5.5
2023-02-24T08:38:00.978Z,5.5
2023-02-24T08:39:03.937Z,5.5
2023-02-24T08:40:07.812Z,5.5
2023-02-24T08:41:11.556Z,5.5
2023-02-24T08:42:14.451Z,5.5
2023-02-24T08:43:17.403Z,5.4
2023-02-24T08:44:19.870Z,5.4
2023-02-24T08:45:22.538Z,5.4
2023-02-24T08:46:25.614Z,5.4
2023-02-24T08:47:30.540Z,5.3
2023-02-24T08:48:33.763Z,5.3
2023-02-24T08:49:36.298Z,5.3
2023-02-24T08:50:39.746Z,5.3
2023-02-24T08:51:42.743Z,5.3
2023-02-24T08:52:45.686Z,5.3
2023-02-24T08:53:48.401Z,5.3
2023-02-24T08:54:51.797Z,5.2
2023-02-24T08:55:55.360Z,5.2
2023-02-24T08:56:59.057Z,5.2
2023-02-24T08:58:02.644Z,5.2
2023-02-24T08:59:07.100Z,5.2
2023-02-24T09:00:09.960Z,5.1
2023-02-24T09:01:13.314Z,5.1
2023-02-24T09:02:17.266Z,5.1
2023-02-24T09:03:21.200Z,5.1
2023-02-24T09:04:24.476Z,5.1
2023-02-24T09:05:28.671Z,5.1
2023-02-24T09:06:31.942Z,5
2023-02-24T09:07:35.490Z,5
2023-02-24T09:08:39.218Z,5
2023-02-24T09:09:43.494Z,5
2023-02-24T09:10:46.635Z,5
2023-02-24T09:11:50.598Z,5
2023-02-24T09:12:54.331Z,5
2023-02-24T09:13:57.140Z,5
2023-02-24T09:15:01.422Z,5
2023-02-24T09:16:05.258Z,5
2023-02-24T09:17:08.277Z,5
2023-02-24T09:18:11.346Z,5
2023-02-24T09:19:14.091Z,5
2023-02-24T09:20:17.600Z,5
2023-02-24T09:21:22.831Z,5
2023-02-24T09:22:26.098Z,5
2023-02-24T09:23:28.255Z,5
2023-02-24T09:24:31.083Z,4.9
2023-02-24T09:25:34.456Z,4.9
2023-02-24T09:26:37.219Z,4.9
2023-02-24T09:27:41.025Z,4.9
2023-02-24T09:28:45.295Z,4.9
2023-02-24T09:29:49.389Z,4.9
2023-02-24T09:30:52.790Z,4.9
2023-02-24T09:31:57.009Z,4.9
2023-02-24T09:33:01.942Z,4.9
2023-02-24T09:34:06.101Z,4.9
2023-02-24T09:35:09.465Z,4.9
2023-02-24T09:36:12.396Z,4.9
2023-02-24T09:37:16.159Z,4.9
2023-02-24T09:38:18.983Z,4.8
2023-02-24T09:39:22.364Z,4.8
2023-02-24T09:40:26.166Z,4.8
2023-02-24T09:41:29.759Z,4.8
2023-02-24T09:42:37.831Z,4.8
2023-02-24T09:43:41.618Z,4.8
2023-02-24T09:44:45.074Z,4.8
2023-02-24T09:45:48.617Z,4.8
2023-02-24T09:46:53.238Z,4.8
2023-02-24T09:47:57.432Z,4.8
2023-02-24T09:49:00.950Z,4.8
2023-02-24T09:50:04.959Z,4.8
2023-02-24T09:51:07.964Z,4.8
2023-02-24T09:52:11.395Z,4.9
2023-02-24T09:53:15.132Z,4.9
2023-02-24T09:54:18.856Z,4.9
2023-02-24T09:55:22.273Z,4.9
2023-02-24T09:56:26.267Z,4.9
2023-02-24T09:57:29.495Z,4.9
2023-02-24T09:58:44.968Z,4.8
2023-02-24T09:59:49.908Z,4.9
2023-02-24T10:00:53.609Z,4.9
2023-02-24T10:01:57.302Z,4.9
2023-02-24T10:03:00.952Z,4.8
2023-02-24T10:04:21.867Z,4.8
2023-02-24T10:05:26.042Z,4.8
2023-02-24T10:06:29.207Z,4.8
2023-02-24T10:07:32.512Z,4.8
2023-02-24T10:08:35.043Z,4.8
2023-02-24T10:09:38.796Z,4.8
2023-02-24T10:10:41.779Z,4.8
2023-02-24T10:11:44.870Z,4.7
2023-02-24T10:12:51.320Z,4.7
2023-02-24T10:13:54.815Z,4.7
2023-02-24T10:15:01.585Z,4.8
2023-02-24T10:16:08.186Z,4.8
2023-02-24T10:17:11.498Z,4.8
2023-02-24T10:18:14.699Z,4.8
2023-02-24T10:19:18.165Z,4.8
2023-02-24T10:20:20.627Z,4.8
2023-02-24T10:21:23.892Z,4.9
2023-02-24T10:22:27.667Z,4.9
2023-02-24T10:23:30.533Z,4.9
2023-02-24T10:24:33.901Z,4.9
2023-02-24T10:25:37.288Z,4.9
2023-02-24T10:26:59.942Z,4.9
2023-02-24T10:28:19.709Z,4.9
2023-02-24T10:29:22.888Z,4.9
2023-02-24T10:30:27.282Z,5
2023-02-24T10:31:31.307Z,5
2023-02-24T10:32:35.332Z,5
2023-02-24T10:33:39.112Z,5
2023-02-24T10:34:42.043Z,5
2023-02-24T10:35:45.046Z,5
2023-02-24T10:36:48.568Z,5
2023-02-24T10:37:52.221Z,5
2023-02-24T10:38:55.328Z,5
2023-02-24T10:39:58.307Z,5
2023-02-24T10:41:01.816Z,5
2023-02-24T10:42:05.437Z,5.1
2023-02-24T10:43:08.758Z,5.1
2023-02-24T10:44:11.923Z,5
2023-02-24T10:45:21.493Z,5
2023-02-24T10:46:43.401Z,5.1
2023-02-24T10:47:48.501Z,5.1
2023-02-24T10:48:51.893Z,5.1
2023-02-24T10:49:55.350Z,5.1
2023-02-24T10:50:58.753Z,5.1
2023-02-24T10:52:01.858Z,5.1
2023-02-24T10:53:05.034Z,5.1
2023-02-24T10:54:08.094Z,5.1
2023-02-24T10:55:11.464Z,5.1
2023-02-24T10:56:14.544Z,5.1
2023-02-24T10:57:18.107Z,5.1
2023-02-24T10:58:21.461Z,5.1
2023-02-24T10:59:26.074Z,5.1
2023-02-24T11:00:28.943Z,5.2
2023-02-24T11:01:33.218Z,5.2
2023-02-24T11:02:36.704Z,5.2
2023-02-24T11:03:40.465Z,5.2
2023-02-24T11:04:43.898Z,5.2
2023-02-24T11:05:47.446Z,5.3
2023-02-24T11:06:50.542Z,5.3
2023-02-24T11:07:54.133Z,5.3
2023-02-24T11:08:57.135Z,5.3
2023-02-24T11:10:00.475Z,5.4
2023-02-24T11:11:04.470Z,5.3
2023-02-24T11:12:06.628Z,5.4
2023-02-24T11:13:11.167Z,5.4
2023-02-24T11:14:14.396Z,5.4
2023-02-24T11:15:17.473Z,5.4
2023-02-24T11:16:21.534Z,5.5
2023-02-24T11:17:25.966Z,5.5
2023-02-24T11:18:29.846Z,5.4
2023-02-24T11:19:32.465Z,5.5
2023-02-24T11:20:50.652Z,5.5
2023-02-24T11:21:54.615Z,5.5
2023-02-24T11:22:58.369Z,5.5
2023-02-24T11:24:02.384Z,5.6
2023-02-24T11:25:06.252Z,5.6
2023-02-24T11:26:09.676Z,5.6
2023-02-24T11:27:12.222Z,5.6
2023-02-24T11:28:15.502Z,5.6
2023-02-24T11:29:19.109Z,5.7
2023-02-24T11:30:23.189Z,5.7
2023-02-24T11:31:28.393Z,5.7
2023-02-24T11:32:33.760Z,5.7
2023-02-24T11:33:37.881Z,5.7
2023-02-24T11:34:41.018Z,5.7
2023-02-24T11:35:43.865Z,5.7
2023-02-24T11:36:47.240Z,5.7
2023-02-24T11:37:49.960Z,5.7
2023-02-24T11:38:53.271Z,5.8
2023-02-24T11:39:57.048Z,5.8
2023-02-24T11:41:00.440Z,5.8
2023-02-24T11:42:04.099Z,5.8
2023-02-24T11:43:07.225Z,5.8
2023-02-24T11:44:16.762Z,5.9
2023-02-24T11:45:20.112Z,5.9
2023-02-24T11:46:23.981Z,5.8
2023-02-24T11:47:26.910Z,5.9
2023-02-24T11:48:31.030Z,5.9
2023-02-24T11:49:34.844Z,5.9
2023-02-24T11:50:38.274Z,5.9
2023-02-24T11:51:41.531Z,5.9
2023-02-24T11:52:45.508Z,5.9
2023-02-24T11:53:48.863Z,5.9
2023-02-24T11:54:51.973Z,5.9
2023-02-24T11:55:54.430Z,5.9
2023-02-24T11:56:57.528Z,5.9
2023-02-24T11:58:00.616Z,5.9
2023-02-24T11:59:04.035Z,5.9
2023-02-24T12:00:07.411Z,6
2023-02-24T12:01:10.840Z,6
2023-02-24T12:02:13.823Z,6
2023-02-24T12:03:17.307Z,6
2023-02-24T12:04:22.082Z,6
2023-02-24T12:05:27.824Z,6
2023-02-24T12:06:31.377Z,6
2023-02-24T12:07:35.043Z,6.1
2023-02-24T12:08:38.213Z,6.1
2023-02-24T12:09:41.928Z,6.1
2023-02-24T12:10:45.047Z,6.1
2023-02-24T12:11:47.914Z,6.1
2023-02-24T12:12:51.060Z,6.1
2023-02-24T12:13:54.082Z,6.1
2023-02-24T12:14:57.077Z,6.2
2023-02-24T12:16:00.148Z,6.1
2023-02-24T12:17:03.741Z,6.1
2023-02-24T12:18:07.101Z,6.1
2023-02-24T12:19:09.897Z,6.1
2023-02-24T12:20:14.252Z,6.2
2023-02-24T12:21:17.294Z,6.1
2023-02-24T12:22:20.272Z,6.2
2023-02-24T12:23:23.829Z,6.2
2023-02-24T12:24:27.216Z,6.2
2023-02-24T12:25:30.575Z,6.2
2023-02-24T12:26:34.070Z,6.2
2023-02-24T12:27:36.939Z,6.2
2023-02-24T12:28:39.371Z,6.2
2023-02-24T12:29:42.878Z,6.2
2023-02-24T12:30:46.134Z,6.2
2023-02-24T12:31:50.817Z,6.2
2023-02-24T12:32:55.686Z,6.2
2023-02-24T12:33:59.249Z,6.2
2023-02-24T12:35:02.740Z,6.2
2023-02-24T12:36:06.611Z,6.2
2023-02-24T12:37:10.046Z,6.1
2023-02-24T12:38:13.508Z,6.2
2023-02-24T12:39:16.185Z,6.2
2023-02-24T12:40:19.580Z,6.2
2023-02-24T12:41:24.295Z,6.2
2023-02-24T12:42:27.732Z,6.2
2023-02-24T12:43:30.811Z,6.2
2023-02-24T12:44:33.338Z,6.2
2023-02-24T12:45:37.295Z,6.3
2023-02-24T12:46:41.188Z,6.3
2023-02-24T12:47:44.719Z,6.3
2023-02-24T12:48:48.094Z,6.3
2023-02-24T12:49:51.555Z,6.3
2023-02-24T12:50:55.684Z,6.3
2023-02-24T12:51:59.605Z,6.3
2023-02-24T12:53:02.390Z,6.2
2023-02-24T12:54:05.762Z,6.3
2023-02-24T12:55:09.161Z,6.3
2023-02-24T12:56:12.460Z,6.3
2023-02-24T12:57:15.453Z,6.3
2023-02-24T12:58:18.895Z,6.3
2023-02-24T12:59:23.311Z,6.3
2023-02-24T13:00:26.944Z,6.3
2023-02-24T13:01:30.893Z,6.3
2023-02-24T13:02:34.266Z,6.3
2023-02-24T13:03:37.847Z,6.2
2023-02-24T13:04:41.015Z,6.2
2023-02-24T13:05:43.872Z,6.3
2023-02-24T13:06:47.669Z,6.3
2023-02-24T13:07:51.857Z,6.3
2023-02-24T13:08:55.354Z,6.4
2023-02-24T13:09:59.131Z,6.4
2023-02-24T13:11:02.276Z,6.4
2023-02-24T13:12:05.893Z,6.4
2023-02-24T13:13:08.762Z,6.5
2023-02-24T13:14:12.129Z,6.4
2023-02-24T13:15:14.843Z,6.4
2023-02-24T13:16:18.270Z,6.4
2023-02-24T13:17:21.870Z,6.5
2023-02-24T13:18:25.602Z,6.5
2023-02-24T13:19:29.297Z,6.4
2023-02-24T13:20:32.389Z,6.5
2023-02-24T13:21:35.965Z,6.5
2023-02-24T13:22:39.078Z,6.5
2023-02-24T13:23:43.372Z,6.5
2023-02-24T13:24:46.651Z,6.5
2023-02-24T13:25:49.755Z,6.5
2023-02-24T13:26:53.147Z,6.5
2023-02-24T13:27:56.382Z,6.5
2023-02-24T13:28:59.740Z,6.5
2023-02-24T13:30:03.065Z,6.5
2023-02-24T13:31:07.080Z,6.5
2023-02-24T13:32:11.340Z,6.5
2023-02-24T13:33:15.564Z,6.5
2023-02-24T13:34:18.701Z,6.5
2023-02-24T13:35:22.154Z,6.4
2023-02-24T13:36:25.613Z,6.5
2023-02-24T13:37:28.607Z,6.5
2023-02-24T13:38:31.715Z,6.4
2023-02-24T13:39:35.506Z,6.5
2023-02-24T13:40:38.860Z,6.5
2023-02-24T13:41:41.977Z,6.5
2023-02-24T13:42:45.348Z,6.5
2023-02-24T13:43:48.453Z,6.5
2023-02-24T13:44:51.526Z,6.5
2023-02-24T13:45:55.581Z,6.5
2023-02-24T13:46:58.933Z,6.5
2023-02-24T13:48:03.600Z,6.5
2023-02-24T13:49:06.633Z,6.5
2023-02-24T13:50:10.507Z,6.5
2023-02-24T13:51:14.587Z,6.5
2023-02-24T13:52:18.038Z,6.5
2023-02-24T13:53:21.123Z,6.6
2023-02-24T13:54:24.601Z,6.6
2023-02-24T13:55:28.556Z,6.5
2023-02-24T13:56:32.123Z,6.6
2023-02-24T13:57:35.576Z,6.6
2023-02-24T13:58:39.214Z,6.5
2023-02-24T13:59:41.653Z,6.6
2023-02-24T14:00:44.729Z,6.6
2023-02-24T14:01:49.102Z,6.6
2023-02-24T14:02:52.989Z,6.6
2023-02-24T14:03:56.440Z,6.6
2023-02-24T14:04:59.837Z,6.6
2023-02-24T14:06:02.822Z,6.6
2023-02-24T14:07:06.474Z,6.6
2023-02-24T14:08:09.457Z,6.6
2023-02-24T14:09:12.912Z,6.6
2023-02-24T14:10:16.296Z,6.6
2023-02-24T14:11:20.982Z,6.7
2023-02-24T14:12:26.117Z,6.7
2023-02-24T14:13:29.652Z,6.7
2023-02-24T14:14:33.384Z,6.7
2023-02-24T14:15:36.437Z,6.7
2023-02-24T14:16:40.689Z,6.7
2023-02-24T14:17:44.698Z,6.7
2023-02-24T14:18:47.773Z,6.7
2023-02-24T14:19:51.133Z,6.7
2023-02-24T14:20:53.968Z,6.7
2023-02-24T14:21:57.085Z,6.7
2023-02-24T14:23:00.586Z,6.7
2023-02-24T14:24:04.070Z,6.7
2023-02-24T14:25:07.462Z,6.7
2023-02-24T14:26:10.982Z,6.7
2023-02-24T14:27:17.933Z,6.7
2023-02-24T14:28:20.939Z,6.7
2023-02-24T14:29:24.140Z,6.7
2023-02-24T14:30:26.493Z,6.7
2023-02-24T14:31:29.905Z,6.7
2023-02-24T14:32:34.116Z,6.7
2023-02-24T14:33:38.290Z,6.7
2023-02-24T14:34:41.679Z,6.7
2023-02-24T14:35:46.407Z,6.7
2023-02-24T14:36:50.320Z,6.7
2023-02-24T14:37:54.792Z,6.7
2023-02-24T14:38:58.870Z,6.7
2023-02-24T14:40:02.348Z,6.8